Time;durP1;ratioP1;P1;durP2;ratioP2;P2;SDS_P1;SDS_P2;PMS_P1;PMS_P2;Temp;Humidity;BMP_temperature;BMP_pressure;BME280_temperature;BME280_humidity;BME280_pressure;Samples;Min_cycle;Max_cycle;Signal;HPM_P1;HPM_P2
2023/07/02 00:01:50;;;;;;;3.97;3.20;;;23.20;57.00;;;;;;5082747;27;20542;-86
2023/07/02 00:04:19;;;;;;;3.17;2.87;;;23.10;57.10;;;;;;5095468;27;20460;-86
2023/07/02 00:06:48;;;;;;;3.43;3.13;;;23.00;57.40;;;;;;5069685;28;20466;-86
2023/07/02 00:09:16;;;;;;;4.17;3.50;;;23.00;57.30;;;;;;5062150;27;20454;-86
2023/07/02 00:11:45;;;;;;;3.70;3.20;;;23.00;58.10;;;;;;5096633;27;20462;-86
2023/07/02 00:14:14;;;;;;;3.40;3.10;;;23.10;57.50;;;;;;5109260;27;20484;-86
2023/07/02 00:16:44;;;;;;;4.73;3.80;;;23.10;57.30;;;;;;5112870;27;20450;-86
2023/07/02 00:19:11;;;;;;;3.50;3.20;;;23.30;57.00;;;;;;5083940;27;20443;-86
2023/07/02 00:21:40;;;;;;;4.93;3.83;;;23.40;56.70;;;;;;5109946;27;20527;-85
2023/07/02 00:24:09;;;;;;;3.90;3.60;;;23.50;56.40;;;;;;5069785;27;20838;-86
2023/07/02 00:26:37;;;;;;;2.80;2.60;;;23.60;56.40;;;;;;5081432;27;20523;-87
2023/07/02 00:29:06;;;;;;;5.93;3.83;;;23.50;56.60;;;;;;5093974;27;20446;-85
2023/07/02 00:31:34;;;;;;;2.87;2.57;;;23.60;56.40;;;;;;5105045;27;20579;-87
2023/07/02 00:34:01;;;;;;;4.40;3.47;;;23.70;56.40;;;;;;5094166;27;20474;-86
2023/07/02 00:36:28;;;;;;;3.78;3.33;;;23.70;56.40;;;;;;5098850;27;20437;-86
2023/07/02 00:38:55;;;;;;;3.60;3.30;;;23.50;56.40;;;;;;5086298;27;20877;-86
2023/07/02 00:41:24;;;;;;;3.78;3.10;;;23.30;56.50;;;;;;5080402;27;20457;-85
2023/07/02 00:43:54;;;;;;;3.30;3.00;;;23.30;56.60;;;;;;5081691;27;20209;-86
2023/07/02 00:46:25;;;;;;;3.73;3.33;;;23.30;56.40;;;;;;5113802;27;20474;-87
2023/07/02 00:48:54;;;;;;;3.65;3.35;;;23.10;56.40;;;;;;5085971;27;20500;-87
2023/07/02 00:51:22;;;;;;;5.30;3.07;;;23.20;56.70;;;;;;5088479;27;20223;-84
2023/07/02 00:53:50;;;;;;;4.30;2.90;;;23.30;56.40;;;;;;5094381;27;20474;-86
2023/07/02 00:56:18;;;;;;;3.43;3.13;;;23.30;56.20;;;;;;5095447;27;20873;-85
2023/07/02 00:58:50;;;;;;;3.77;2.97;;;23.20;55.90;;;;;;5082281;27;20439;-87
2023/07/02 01:01:18;;;;;;;2.92;2.67;;;23.00;56.00;;;;;;5086857;27;20518;-85
2023/07/02 01:03:55;;;;;;;3.90;3.27;;;22.90;55.90;;;;;;5111891;27;20424;-86
2023/07/02 01:06:25;;;;;;;3.80;3.10;;;23.00;55.60;;;;;;5086105;27;20527;-85
2023/07/02 01:08:55;;;;;;;2.80;2.60;;;22.80;55.70;;;;;;5094094;27;20436;-88
2023/07/02 01:11:26;;;;;;;4.20;3.07;;;22.70;56.00;;;;;;5089089;27;20512;-84
2023/07/02 01:14:00;;;;;;;4.30;2.80;;;22.70;55.70;;;;;;5109404;27;20485;-85
2023/07/02 01:16:32;;;;;;;3.07;2.47;;;22.50;55.40;;;;;;5087686;27;20450;-86
2023/07/02 01:19:03;;;;;;;3.60;2.83;;;22.30;55.80;;;;;;5075851;27;20540;-85
2023/07/02 01:21:33;;;;;;;2.50;2.30;;;22.40;55.80;;;;;;5076699;27;20442;-85
2023/07/02 01:24:02;;;;;;;3.00;2.70;;;22.50;55.50;;;;;;5080889;27;21015;-86
2023/07/02 01:26:33;;;;;;;2.40;2.20;;;22.40;55.20;;;;;;5081999;27;20438;-86
2023/07/02 01:29:12;;;;;;;3.07;2.50;;;22.40;55.30;;;;;;5102614;27;20456;-85
2023/07/02 01:31:39;;;;;;;3.47;3.00;;;22.60;55.10;;;;;;5094125;27;20554;-85
2023/07/02 01:34:07;;;;;;;2.50;2.30;;;22.70;54.40;;;;;;5067389;27;21333;-85
2023/07/02 01:36:36;;;;;;;3.23;2.57;;;22.90;54.50;;;;;;5071163;27;20471;-85
2023/07/02 01:39:03;;;;;;;2.80;2.40;;;22.70;53.70;;;;;;5082322;27;20458;-85
2023/07/02 01:41:30;;;;;;;4.00;2.70;;;22.60;53.90;;;;;;5074741;28;20538;-86
2023/07/02 01:43:57;;;;;;;2.88;2.58;;;22.50;54.30;;;;;;5061496;27;21421;-85
2023/07/02 01:46:24;;;;;;;3.57;2.40;;;22.50;54.20;;;;;;5066771;27;20199;-85
2023/07/02 01:48:51;;;;;;;2.75;2.17;;;22.50;53.90;;;;;;5069265;27;20831;-85
2023/07/02 01:51:18;;;;;;;4.10;3.30;;;22.60;53.80;;;;;;5082325;27;20236;-84
2023/07/02 01:53:47;;;;;;;4.00;2.70;;;22.60;53.80;;;;;;5069368;27;20893;-86
2023/07/02 01:56:14;;;;;;;3.10;2.30;;;22.70;53.70;;;;;;5083117;27;20511;-85
2023/07/02 01:58:41;;;;;;;4.20;2.27;;;22.80;53.60;;;;;;5076449;27;20994;-85
2023/07/02 02:01:08;;;;;;;13.17;2.53;;;22.80;53.40;;;;;;5067869;27;20446;-86
2023/07/02 02:03:36;;;;;;;3.87;2.57;;;22.70;53.30;;;;;;5086266;27;20467;-84
2023/07/02 02:06:03;;;;;;;3.67;2.27;;;22.60;53.00;;;;;;5084730;27;20445;-85
2023/07/02 02:08:29;;;;;;;3.00;2.77;;;22.60;52.60;;;;;;5078900;27;20502;-85
2023/07/02 02:10:58;;;;;;;2.27;2.07;;;22.50;52.60;;;;;;5085006;27;20469;-85
2023/07/02 02:13:25;;;;;;;2.53;1.75;;;22.30;52.30;;;;;;5083891;27;20466;-86
2023/07/02 02:15:52;;;;;;;2.70;2.40;;;22.30;52.60;;;;;;5077837;27;20879;-86
2023/07/02 02:18:19;;;;;;;3.70;2.13;;;22.30;52.10;;;;;;5080969;27;20227;-85
2023/07/02 02:20:46;;;;;;;3.87;2.30;;;22.30;52.20;;;;;;5095632;28;20451;-85
2023/07/02 02:23:13;;;;;;;3.28;2.30;;;22.30;52.30;;;;;;5084733;27;21227;-87
2023/07/02 02:25:40;;;;;;;3.00;2.23;;;22.40;52.30;;;;;;5084627;27;20204;-88
2023/07/02 02:28:10;;;;;;;2.27;1.80;;;22.50;52.30;;;;;;5062176;27;20451;-85
2023/07/02 02:30:36;;;;;;;2.50;2.30;;;22.50;51.80;;;;;;5079468;27;20505;-86
2023/07/02 02:33:04;;;;;;;2.40;1.93;;;22.50;51.50;;;;;;5093114;27;20839;-85
2023/07/02 02:35:31;;;;;;;2.00;1.90;;;22.40;51.60;;;;;;5112828;27;20479;-86
2023/07/02 02:37:58;;;;;;;3.90;2.40;;;22.40;51.70;;;;;;5101456;27;20446;-85
2023/07/02 02:40:25;;;;;;;2.07;1.87;;;22.40;51.50;;;;;;5093246;27;20458;-85
2023/07/02 02:42:52;;;;;;;4.27;2.37;;;22.50;51.50;;;;;;5067369;27;20493;-85
2023/07/02 02:45:20;;;;;;;3.20;1.90;;;22.40;51.00;;;;;;5073541;27;20453;-85
2023/07/02 02:47:47;;;;;;;2.90;2.30;;;22.20;51.40;;;;;;5078363;27;20451;-84
2023/07/02 02:50:14;;;;;;;2.57;2.03;;;22.20;51.70;;;;;;5079304;27;20826;-86
2023/07/02 02:52:42;;;;;;;2.17;1.97;;;22.20;51.60;;;;;;5066816;27;20478;-86
2023/07/02 02:55:12;;;;;;;2.97;1.70;;;22.20;51.50;;;;;;5096155;27;20455;-85
2023/07/02 02:57:39;;;;;;;3.50;1.77;;;22.10;51.50;;;;;;5079770;28;20455;-85
2023/07/02 03:00:07;;;;;;;3.60;1.83;;;22.10;51.20;;;;;;5076820;27;20445;-86
2023/07/02 03:02:35;;;;;;;2.57;1.80;;;22.00;51.20;;;;;;5088635;27;20619;-86
2023/07/02 03:05:04;;;;;;;2.33;2.08;;;21.90;51.60;;;;;;5079686;28;20465;-85
2023/07/02 03:07:31;;;;;;;2.17;1.90;;;21.80;51.70;;;;;;5082364;27;20246;-86
2023/07/02 03:09:57;;;;;;;2.13;1.93;;;21.60;52.30;;;;;;5097430;27;20810;-87
2023/07/02 03:12:44;;;;;;;3.07;2.10;;;21.50;52.00;;;;;;5082390;27;20478;-86
2023/07/02 03:15:11;;;;;;;7.00;2.00;;;21.50;52.30;;;;;;5104896;27;20434;-86
2023/07/02 03:17:39;;;;;;;2.90;2.03;;;21.40;52.30;;;;;;5061002;27;20510;-86
2023/07/02 03:20:08;;;;;;;6.00;2.20;;;21.40;52.50;;;;;;5077294;28;20430;-86
2023/07/02 03:22:35;;;;;;;3.40;2.27;;;21.40;52.40;;;;;;5096904;28;21029;-85
2023/07/02 03:25:02;;;;;;;3.60;2.40;;;21.40;52.30;;;;;;5062328;28;21001;-85
2023/07/02 03:27:31;;;;;;;5.73;2.70;;;21.40;52.10;;;;;;5080759;27;20546;-86
2023/07/02 03:29:58;;;;;;;3.40;2.73;;;21.10;52.00;;;;;;5105544;27;20823;-85
2023/07/02 03:32:25;;;;;;;4.47;2.70;;;21.00;52.00;;;;;;5115463;27;20467;-85
2023/07/02 03:34:53;;;;;;;3.40;3.10;;;21.00;51.50;;;;;;5118144;27;20438;-85
2023/07/02 03:37:21;;;;;;;5.43;3.87;;;21.10;51.60;;;;;;5081416;27;20864;-86
2023/07/02 03:39:48;;;;;;;8.57;2.80;;;21.00;51.40;;;;;;5098075;27;20529;-85
2023/07/02 03:42:15;;;;;;;4.00;2.60;;;21.00;51.40;;;;;;5088421;27;20825;-86
2023/07/02 03:44:42;;;;;;;9.50;3.00;;;21.00;51.60;;;;;;5090977;27;20973;-88
2023/07/02 03:47:09;;;;;;;4.80;2.97;;;20.90;52.30;;;;;;5099713;27;20447;-86
2023/07/02 03:49:36;;;;;;;4.03;3.23;;;20.80;52.30;;;;;;5083231;27;20541;-85
2023/07/02 03:52:05;;;;;;;3.63;3.13;;;20.60;51.00;;;;;;5075613;27;20829;-85
2023/07/02 03:54:31;;;;;;;8.20;4.03;;;20.30;50.80;;;;;;5080250;27;20200;-86
2023/07/02 03:56:58;;;;;;;8.30;4.50;;;20.40;50.60;;;;;;5072314;27;20453;-85
2023/07/02 03:59:25;;;;;;;5.43;3.83;;;20.30;50.50;;;;;;5097979;27;20460;-85
2023/07/02 04:01:52;;;;;;;6.10;3.80;;;20.30;50.90;;;;;;5101379;27;20575;-86
2023/07/02 04:04:19;;;;;;;6.73;3.60;;;20.20;50.80;;;;;;5104206;27;20449;-85
2023/07/02 04:06:47;;;;;;;6.30;3.83;;;20.40;50.40;;;;;;5101675;27;20533;-85
2023/07/02 04:09:16;;;;;;;4.13;3.63;;;20.50;50.40;;;;;;5081467;27;20504;-86
2023/07/02 04:11:42;;;;;;;6.60;3.87;;;20.70;50.00;;;;;;5084887;27;20462;-85
2023/07/02 04:14:09;;;;;;;5.00;3.80;;;21.00;50.10;;;;;;5098317;27;20456;-85
2023/07/02 04:16:36;;;;;;;5.83;3.60;;;21.20;50.10;;;;;;5087911;27;20528;-85
2023/07/02 04:19:03;;;;;;;6.53;3.40;;;21.40;50.20;;;;;;5096179;27;21012;-86
2023/07/02 04:21:30;;;;;;;7.20;3.93;;;21.50;49.90;;;;;;5069565;27;20531;-86
2023/07/02 04:23:57;;;;;;;6.37;3.90;;;21.60;50.30;;;;;;5064710;27;20466;-86
2023/07/02 04:26:26;;;;;;;4.93;3.60;;;21.70;50.40;;;;;;5062675;27;20448;-86
2023/07/02 04:28:54;;;;;;;8.10;3.40;;;21.70;50.30;;;;;;5080814;27;20451;-86
2023/07/02 04:31:21;;;;;;;6.77;3.30;;;21.80;50.40;;;;;;5090616;27;20531;-86
2023/07/02 04:33:48;;;;;;;7.30;3.60;;;21.80;50.50;;;;;;5101017;27;20551;-86
2023/07/02 04:36:15;;;;;;;6.93;4.27;;;21.60;50.00;;;;;;5102698;27;20434;-86
2023/07/02 04:38:42;;;;;;;5.30;3.33;;;21.40;48.50;;;;;;5103693;27;20477;-85
2023/07/02 04:41:10;;;;;;;9.53;3.77;;;21.30;48.40;;;;;;5086243;27;20457;-85
2023/07/02 04:43:38;;;;;;;5.20;3.73;;;21.40;48.90;;;;;;5077222;27;20541;-85
2023/07/02 04:46:07;;;;;;;5.60;4.17;;;21.50;49.50;;;;;;5071055;27;20450;-85
2023/07/02 04:48:34;;;;;;;9.13;3.90;;;21.50;49.70;;;;;;5109942;27;20920;-85
2023/07/02 04:51:01;;;;;;;8.63;4.37;;;21.50;50.10;;;;;;5098112;27;20439;-86
2023/07/02 04:53:28;;;;;;;6.40;4.00;;;21.60;50.60;;;;;;5085615;27;21221;-86
2023/07/02 04:55:56;;;;;;;4.53;3.20;;;21.70;50.60;;;;;;5085760;27;20545;-85
2023/07/02 04:58:24;;;;;;;5.53;3.70;;;21.70;50.60;;;;;;5113111;27;20450;-85
2023/07/02 05:00:52;;;;;;;10.13;3.90;;;21.80;51.00;;;;;;5082297;27;20494;-85
2023/07/02 05:03:20;;;;;;;5.47;4.00;;;21.90;50.30;;;;;;5111312;27;20566;-85
2023/07/02 05:05:47;;;;;;;6.00;4.13;;;21.70;50.50;;;;;;5071109;27;20199;-86
2023/07/02 05:08:15;;;;;;;7.00;4.17;;;21.70;50.70;;;;;;5061267;27;20442;-85
2023/07/02 05:10:42;;;;;;;7.40;4.30;;;21.70;50.00;;;;;;5077588;27;20446;-86
2023/07/02 05:13:09;;;;;;;5.97;4.07;;;21.70;50.00;;;;;;5083726;27;20570;-86
2023/07/02 05:15:36;;;;;;;6.20;4.00;;;21.70;49.10;;;;;;5077021;27;20435;-85
2023/07/02 05:18:06;;;;;;;11.70;4.73;;;21.20;49.80;;;;;;5070270;27;20442;-84
2023/07/02 05:20:33;;;;;;;7.97;4.53;;;21.30;50.00;;;;;;5117086;27;20444;-85
2023/07/02 05:23:00;;;;;;;6.43;4.50;;;21.20;49.50;;;;;;5104958;27;20466;-85
2023/07/02 05:25:27;;;;;;;7.60;5.33;;;21.20;49.20;;;;;;5113825;27;20800;-85
2023/07/02 05:27:54;;;;;;;8.23;5.10;;;21.30;50.00;;;;;;5082869;27;20447;-85
2023/07/02 05:30:21;;;;;;;8.83;5.00;;;21.30;49.90;;;;;;5067335;27;21019;-85
2023/07/02 05:32:48;;;;;;;6.73;4.70;;;21.40;49.00;;;;;;5103061;27;20498;-85
2023/07/02 05:35:17;;;;;;;7.70;4.57;;;21.40;48.80;;;;;;5106438;27;20519;-85
2023/07/02 05:37:45;;;;;;;9.57;5.90;;;21.40;48.70;;;;;;5090273;27;21983;-85
2023/07/02 05:40:12;;;;;;;8.47;4.60;;;21.20;48.60;;;;;;5078670;27;20461;-85
2023/07/02 05:42:39;;;;;;;9.65;5.00;;;21.20;49.20;;;;;;5085505;27;20462;-86
2023/07/02 05:45:07;;;;;;;8.63;5.20;;;21.30;48.40;;;;;;5083184;27;20200;-86
2023/07/02 05:47:33;;;;;;;9.73;5.17;;;21.40;48.50;;;;;;5078613;27;20447;-85
2023/07/02 05:50:00;;;;;;;7.33;5.00;;;21.40;48.60;;;;;;5086627;27;20453;-85
2023/07/02 05:52:29;;;;;;;7.10;5.40;;;21.30;48.30;;;;;;5091954;27;20482;-86
2023/07/02 05:54:56;;;;;;;9.37;5.40;;;21.30;48.60;;;;;;5073056;27;20541;-86
2023/07/02 05:57:23;;;;;;;8.93;5.43;;;21.50;48.70;;;;;;5096419;27;20447;-85
2023/07/02 05:59:50;;;;;;;8.37;4.77;;;21.90;48.40;;;;;;5087380;27;20811;-84
2023/07/02 06:02:17;;;;;;;9.67;5.53;;;22.20;48.00;;;;;;5086202;27;20458;-86
2023/07/02 06:04:44;;;;;;;5.57;4.80;;;22.20;47.50;;;;;;5081265;27;20893;-85
2023/07/02 06:07:10;;;;;;;9.93;5.70;;;22.40;47.60;;;;;;5078182;27;20819;-85
2023/07/02 06:09:39;;;;;;;11.73;6.23;;;22.30;47.00;;;;;;5084134;27;20451;-85
2023/07/02 06:12:06;;;;;;;11.70;5.80;;;22.30;47.70;;;;;;5069743;27;20477;-85
2023/07/02 06:14:33;;;;;;;8.60;5.50;;;22.10;46.90;;;;;;5072757;27;20458;-85
2023/07/02 06:17:00;;;;;;;10.63;5.90;;;22.30;47.60;;;;;;5085585;27;20457;-85
2023/07/02 06:19:27;;;;;;;11.30;5.88;;;22.40;47.40;;;;;;5084184;27;21122;-85
2023/07/02 06:21:54;;;;;;;11.60;6.30;;;22.30;47.40;;;;;;5102270;27;21242;-85
2023/07/02 06:24:21;;;;;;;11.13;5.65;;;22.40;47.60;;;;;;5076610;27;20473;-84
2023/07/02 06:26:50;;;;;;;13.37;6.07;;;22.40;47.40;;;;;;5064156;27;21588;-84
2023/07/02 06:29:17;;;;;;;12.70;6.60;;;22.30;47.30;;;;;;5102924;27;20459;-86
2023/07/02 06:31:44;;;;;;;10.27;5.80;;;22.00;47.20;;;;;;5070488;27;20467;-85
2023/07/02 06:34:11;;;;;;;11.27;5.23;;;22.00;48.40;;;;;;5088745;27;20200;-85
2023/07/02 06:36:38;;;;;;;12.00;5.95;;;22.00;48.20;;;;;;5073420;27;20447;-85
2023/07/02 06:39:05;;;;;;;10.17;5.67;;;21.90;48.30;;;;;;5081338;27;20200;-84
2023/07/02 06:41:32;;;;;;;9.60;5.30;;;22.00;48.30;;;;;;5091181;27;20453;-85
2023/07/02 06:44:00;;;;;;;13.83;6.60;;;22.10;48.30;;;;;;5098850;27;20474;-85
2023/07/02 06:46:27;;;;;;;10.03;6.20;;;22.40;48.50;;;;;;5076280;27;20458;-85
2023/07/02 06:48:55;;;;;;;13.85;6.18;;;22.60;48.30;;;;;;5107921;27;20450;-85
2023/07/02 06:51:22;;;;;;;9.70;6.17;;;22.70;47.90;;;;;;5059027;27;20279;-85
2023/07/02 06:53:49;;;;;;;11.07;6.40;;;22.90;47.00;;;;;;5059827;27;20490;-86
2023/07/02 06:56:16;;;;;;;9.43;6.27;;;22.90;47.10;;;;;;5064181;27;20447;-84
2023/07/02 06:58:44;;;;;;;11.03;6.60;;;23.00;47.00;;;;;;5079649;27;20815;-85
2023/07/02 07:01:12;;;;;;;11.57;7.13;;;23.00;46.40;;;;;;5075247;27;20446;-84
2023/07/02 07:03:39;;;;;;;15.17;6.73;;;23.10;47.70;;;;;;5106212;27;20466;-86
2023/07/02 07:06:06;;;;;;;11.03;6.50;;;23.20;47.60;;;;;;5065483;27;20454;-84
2023/07/02 07:08:33;;;;;;;9.17;6.30;;;23.30;46.80;;;;;;5114084;27;20458;-85
2023/07/02 07:11:00;;;;;;;8.60;5.93;;;23.30;46.40;;;;;;5081792;27;20446;-85
2023/07/02 07:13:27;;;;;;;14.90;6.25;;;23.30;47.20;;;;;;5081340;28;20481;-84
2023/07/02 07:15:54;;;;;;;13.30;6.40;;;23.40;46.50;;;;;;5090398;27;20204;-85
2023/07/02 07:18:22;;;;;;;9.17;6.53;;;23.60;47.20;;;;;;5075723;28;20554;-84
2023/07/02 07:20:49;;;;;;;13.73;7.30;;;23.50;46.50;;;;;;5088128;27;20447;-85
2023/07/02 07:23:16;;;;;;;10.00;6.13;;;23.80;46.80;;;;;;5070982;28;21009;-84
2023/07/02 07:25:43;;;;;;;11.73;7.40;;;24.00;46.70;;;;;;5056258;27;20450;-84
2023/07/02 07:28:15;;;;;;;11.93;7.10;;;24.10;46.50;;;;;;5092982;27;20456;-85
2023/07/02 07:30:42;;;;;;;13.60;7.47;;;24.30;45.00;;;;;;5060802;27;20448;-84
2023/07/02 07:33:09;;;;;;;12.47;6.37;;;24.10;45.60;;;;;;5090993;28;20474;-85
2023/07/02 07:35:37;;;;;;;10.10;6.60;;;24.20;45.50;;;;;;5105272;27;20450;-84
2023/07/02 07:38:04;;;;;;;9.33;6.57;;;24.20;45.70;;;;;;5106232;27;20974;-84
2023/07/02 07:40:31;;;;;;;8.93;6.30;;;24.30;44.80;;;;;;5070022;28;21030;-83
2023/07/02 07:42:58;;;;;;;9.90;6.97;;;24.40;45.00;;;;;;5088747;27;21800;-84
2023/07/02 07:45:25;;;;;;;9.50;7.07;;;24.30;45.70;;;;;;5060735;28;20450;-84
2023/07/02 07:47:52;;;;;;;13.88;7.53;;;24.30;45.20;;;;;;5108418;27;20493;-84
2023/07/02 07:50:18;;;;;;;12.23;6.78;;;24.30;44.90;;;;;;5105476;27;20188;-84
2023/07/02 07:52:47;;;;;;;11.43;6.70;;;24.30;45.70;;;;;;5107923;27;20218;-84
2023/07/02 07:55:14;;;;;;;12.00;6.60;;;24.30;46.30;;;;;;5107666;27;20454;-83
2023/07/02 07:57:41;;;;;;;12.70;7.00;;;24.30;46.20;;;;;;5086868;27;20455;-84
2023/07/02 08:00:10;;;;;;;13.43;7.67;;;24.10;45.00;;;;;;5087927;28;20448;-84
2023/07/02 08:02:47;;;;;;;9.83;6.63;;;23.70;45.70;;;;;;5075091;27;20584;-85
2023/07/02 08:05:14;;;;;;;12.33;7.17;;;23.60;45.70;;;;;;5078798;28;20502;-84
2023/07/02 08:07:41;;;;;;;17.27;6.83;;;23.00;45.60;;;;;;5055010;27;20447;-84
2023/07/02 08:10:10;;;;;;;18.10;7.25;;;22.80;46.30;;;;;;5065955;28;21304;-84
2023/07/02 08:12:37;;;;;;;13.57;6.77;;;22.60;46.10;;;;;;5089429;28;20832;-85
2023/07/02 08:15:05;;;;;;;10.40;6.13;;;22.60;46.30;;;;;;5077268;27;20475;-86
2023/07/02 08:17:32;;;;;;;15.80;8.10;;;22.80;45.80;;;;;;5075190;27;20304;-86
2023/07/02 08:20:00;;;;;;;12.97;7.17;;;22.80;46.70;;;;;;5078306;27;20513;-84
2023/07/02 08:22:27;;;;;;;13.07;6.60;;;22.80;46.50;;;;;;5079250;27;20465;-87
2023/07/02 08:24:54;;;;;;;9.80;6.70;;;23.10;46.80;;;;;;5064555;27;20532;-85
2023/07/02 08:27:23;;;;;;;10.27;6.70;;;23.30;46.70;;;;;;5094827;27;20491;-86
2023/07/02 08:29:50;;;;;;;12.40;7.00;;;23.70;46.60;;;;;;5062400;27;20591;-85
2023/07/02 08:32:17;;;;;;;10.90;6.28;;;23.70;44.80;;;;;;5092452;27;21412;-86
2023/07/02 08:34:44;;;;;;;11.30;6.03;;;23.70;44.40;;;;;;5076834;27;20735;-85
2023/07/02 08:37:11;;;;;;;9.70;5.93;;;23.90;44.50;;;;;;5081821;27;20460;-85
2023/07/02 08:39:39;;;;;;;9.67;6.50;;;24.30;44.40;;;;;;5110094;27;20445;-86
2023/07/02 08:42:07;;;;;;;11.43;6.80;;;24.60;44.10;;;;;;5077258;27;20514;-85
2023/07/02 08:44:36;;;;;;;9.23;6.37;;;24.90;44.10;;;;;;5095512;27;20449;-87
2023/07/02 08:47:03;;;;;;;10.63;6.00;;;24.90;41.70;;;;;;5125285;27;20465;-86
2023/07/02 08:49:30;;;;;;;13.40;6.47;;;24.80;42.60;;;;;;5096411;27;20487;-87
2023/07/02 08:51:57;;;;;;;9.67;6.00;;;24.50;42.10;;;;;;5063087;27;20513;-86
2023/07/02 08:54:24;;;;;;;8.33;6.77;;;24.30;42.30;;;;;;5077119;27;20469;-85
2023/07/02 08:56:52;;;;;;;13.77;5.83;;;24.20;42.80;;;;;;5079373;27;20474;-87
2023/07/02 08:59:20;;;;;;;8.33;5.57;;;24.50;43.40;;;;;;5079666;27;20480;-87
2023/07/02 09:01:50;;;;;;;9.50;6.10;;;24.30;41.90;;;;;;5078756;27;20967;-86
2023/07/02 09:04:18;;;;;;;8.73;5.93;;;24.50;42.10;;;;;;5093049;27;20453;-87
2023/07/02 09:06:45;;;;;;;7.27;5.30;;;24.60;42.10;;;;;;5109777;27;20453;-86
2023/07/02 09:09:13;;;;;;;10.43;6.60;;;24.70;41.70;;;;;;5090252;27;20936;-86
2023/07/02 09:11:50;;;;;;;9.37;5.83;;;24.80;41.80;;;;;;5090923;27;20442;-86
2023/07/02 09:14:28;;;;;;;6.53;4.60;;;25.00;41.30;;;;;;5074601;27;20608;-86
2023/07/02 09:17:08;;;;;;;7.73;5.53;;;25.00;41.10;;;;;;5076253;27;20540;-85
2023/07/02 09:19:36;;;;;;;8.20;5.90;;;25.00;40.80;;;;;;5055819;27;20469;-86
2023/07/02 09:22:05;;;;;;;9.43;5.70;;;24.90;40.60;;;;;;5120461;27;20477;-85
2023/07/02 09:24:33;;;;;;;7.60;5.13;;;24.60;39.70;;;;;;5076232;27;20442;-86
2023/07/02 09:27:01;;;;;;;8.87;5.70;;;24.80;40.90;;;;;;5090417;27;21049;-86
2023/07/02 09:29:29;;;;;;;9.00;5.30;;;24.60;39.70;;;;;;5059274;27;20449;-86
2023/07/02 09:31:58;;;;;;;7.93;5.57;;;24.70;40.50;;;;;;5086659;27;20831;-87
2023/07/02 09:34:30;;;;;;;7.97;5.67;;;25.20;39.40;;;;;;5060098;27;20496;-87
2023/07/02 09:36:57;;;;;;;8.80;5.47;;;25.20;39.20;;;;;;5078733;27;20519;-86
2023/07/02 09:39:28;;;;;;;8.50;5.67;;;25.20;39.00;;;;;;5068910;27;20478;-86
2023/07/02 09:41:57;;;;;;;9.53;6.23;;;25.30;39.30;;;;;;5092677;27;20798;-85
2023/07/02 09:44:30;;;;;;;8.80;5.47;;;25.80;38.80;;;;;;5076776;27;20690;-86
2023/07/02 09:47:03;;;;;;;7.93;5.28;;;26.00;37.90;;;;;;5091294;27;20220;-86
2023/07/02 09:49:33;;;;;;;8.10;4.97;;;26.10;37.90;;;;;;5076236;27;20228;-88
2023/07/02 09:52:01;;;;;;;8.50;5.30;;;26.00;37.80;;;;;;5089907;27;20450;-87
2023/07/02 09:54:29;;;;;;;7.03;5.40;;;25.90;38.20;;;;;;5092879;27;20469;-85
2023/07/02 09:56:56;;;;;;;7.00;5.73;;;25.80;38.60;;;;;;5057690;27;20224;-86
2023/07/02 09:59:24;;;;;;;8.77;5.47;;;26.00;38.90;;;;;;5109158;27;20446;-86
2023/07/02 10:01:51;;;;;;;7.07;5.50;;;25.70;37.60;;;;;;5111349;27;20444;-85
2023/07/02 10:04:19;;;;;;;9.23;5.20;;;26.00;38.00;;;;;;5090022;27;20451;-88
2023/07/02 10:06:50;;;;;;;8.47;5.53;;;26.30;37.40;;;;;;5091691;27;20448;-86
2023/07/02 10:09:17;;;;;;;10.73;6.07;;;26.50;36.10;;;;;;5089262;27;20443;-85
2023/07/02 10:11:45;;;;;;;6.10;4.40;;;26.40;36.20;;;;;;5056506;27;20456;-86
2023/07/02 10:14:12;;;;;;;7.30;5.40;;;26.50;34.90;;;;;;5087566;27;20479;-87
2023/07/02 10:16:52;;;;;;;7.50;5.00;;;26.30;34.60;;;;;;5060527;27;20462;-86
2023/07/02 10:19:20;;;;;;;6.43;4.60;;;26.20;36.00;;;;;;5079499;27;20541;-86
2023/07/02 10:22:02;;;;;;;7.80;5.27;;;26.20;36.40;;;;;;5074191;27;20465;-84
2023/07/02 10:24:29;;;;;;;9.80;5.07;;;26.30;36.10;;;;;;5075882;27;20493;-85
2023/07/02 10:26:58;;;;;;;7.70;5.38;;;26.20;36.00;;;;;;5076940;27;20465;-87
2023/07/02 10:29:26;;;;;;;9.37;5.87;;;25.90;35.10;;;;;;5073762;27;20188;-85
2023/07/02 10:31:55;;;;;;;11.10;6.30;;;25.40;37.20;;;;;;5105716;27;20549;-86
2023/07/02 10:34:32;;;;;;;10.20;6.20;;;25.50;37.70;;;;;;5072504;27;20466;-86
2023/07/02 10:37:03;;;;;;;11.40;6.00;;;25.50;38.00;;;;;;5072541;27;20463;-86
2023/07/02 10:39:31;;;;;;;8.07;5.90;;;25.70;37.30;;;;;;5073647;27;20528;-86
2023/07/02 10:42:08;;;;;;;10.57;6.93;;;25.70;37.30;;;;;;5074758;27;20722;-87
2023/07/02 10:44:47;;;;;;;9.60;5.50;;;25.80;36.80;;;;;;5072575;27;20541;-86
2023/07/02 10:47:14;;;;;;;10.33;6.50;;;25.70;36.90;;;;;;5088831;27;20446;-86
2023/07/02 10:49:41;;;;;;;7.47;5.90;;;25.90;37.00;;;;;;5071839;27;20458;-86
2023/07/02 10:52:09;;;;;;;9.60;5.90;;;26.00;37.40;;;;;;5105851;27;20465;-86
2023/07/02 10:54:44;;;;;;;9.13;5.70;;;26.00;36.90;;;;;;5071757;27;20496;-86
2023/07/02 10:57:14;;;;;;;12.40;7.10;;;26.10;36.60;;;;;;5077405;27;20449;-85
2023/07/02 10:59:41;;;;;;;11.63;6.80;;;26.00;36.60;;;;;;5075857;27;20460;-86
2023/07/02 11:02:10;;;;;;;12.90;6.93;;;26.00;36.40;;;;;;5057154;27;20612;-86
2023/07/02 11:04:37;;;;;;;14.80;7.73;;;25.80;36.30;;;;;;5070182;27;20528;-85
2023/07/02 11:07:06;;;;;;;11.70;7.63;;;25.80;37.00;;;;;;5072514;27;20515;-87
2023/07/02 11:09:35;;;;;;;13.13;7.70;;;26.10;37.00;;;;;;5073003;27;20458;-87
2023/07/02 11:12:02;;;;;;;15.10;7.83;;;26.20;35.30;;;;;;5075941;27;20487;-86
2023/07/02 11:14:30;;;;;;;11.00;7.80;;;25.80;35.40;;;;;;5075936;27;20557;-86
2023/07/02 11:16:58;;;;;;;15.23;7.00;;;25.80;35.60;;;;;;5056949;28;20450;-87
2023/07/02 11:19:26;;;;;;;10.63;7.27;;;26.00;36.80;;;;;;5090622;27;20454;-86
2023/07/02 11:21:55;;;;;;;11.27;6.93;;;26.00;36.70;;;;;;5089464;27;20478;-87
2023/07/02 11:24:31;;;;;;;12.07;7.10;;;26.10;36.80;;;;;;5071207;27;21906;-88
2023/07/02 11:27:01;;;;;;;11.40;6.97;;;26.10;35.80;;;;;;5106995;27;20473;-86
2023/07/02 11:29:30;;;;;;;11.83;7.63;;;26.30;35.70;;;;;;5069957;27;20448;-87
2023/07/02 11:32:06;;;;;;;12.43;7.30;;;26.70;34.50;;;;;;5072772;28;21196;-86
2023/07/02 11:34:33;;;;;;;12.10;7.40;;;26.90;34.00;;;;;;5071171;28;20461;-85
2023/07/02 11:37:00;;;;;;;16.03;7.20;;;26.90;34.00;;;;;;5089332;28;20528;-86
2023/07/02 11:39:27;;;;;;;10.65;7.28;;;27.00;34.50;;;;;;5085105;27;21015;-87
2023/07/02 11:41:54;;;;;;;10.93;7.03;;;26.70;33.90;;;;;;5107092;27;20189;-86
2023/07/02 11:44:22;;;;;;;9.93;6.87;;;26.70;34.00;;;;;;5050752;27;20458;-86
2023/07/02 11:46:50;;;;;;;12.90;6.83;;;27.20;33.60;;;;;;5054723;28;20464;-85
2023/07/02 11:49:17;;;;;;;12.17;7.43;;;27.10;32.60;;;;;;5067928;27;20544;-86
2023/07/02 11:51:48;;;;;;;12.77;7.10;;;27.00;33.20;;;;;;5088223;27;20962;-85
2023/07/02 11:54:16;;;;;;;12.70;7.57;;;27.10;33.20;;;;;;5107279;27;21224;-85
2023/07/02 11:56:43;;;;;;;11.33;7.23;;;27.00;33.40;;;;;;5055488;27;20625;-85
2023/07/02 11:59:10;;;;;;;12.50;7.30;;;26.80;33.50;;;;;;5087651;27;20854;-84
2023/07/02 12:01:38;;;;;;;10.27;6.77;;;27.10;33.50;;;;;;5086333;27;20442;-87
2023/07/02 12:04:07;;;;;;;12.80;7.43;;;27.10;32.60;;;;;;5059345;27;20472;-85
2023/07/02 12:06:34;;;;;;;14.40;7.10;;;27.30;32.40;;;;;;5073453;27;20465;-85
2023/07/02 12:09:01;;;;;;;14.10;7.67;;;27.20;33.00;;;;;;5089758;27;20461;-85
2023/07/02 12:11:28;;;;;;;10.30;7.20;;;27.20;33.40;;;;;;5056961;27;20462;-85
2023/07/02 12:13:55;;;;;;;12.17;8.23;;;27.10;32.60;;;;;;5058449;27;20470;-85
2023/07/02 12:16:22;;;;;;;13.77;7.90;;;27.10;32.00;;;;;;5059042;27;20452;-85
2023/07/02 12:18:51;;;;;;;13.43;7.27;;;27.20;32.40;;;;;;5108763;27;20530;-85
2023/07/02 12:21:18;;;;;;;11.90;8.30;;;27.40;32.20;;;;;;5057935;27;20431;-85
2023/07/02 12:23:45;;;;;;;10.53;8.00;;;27.60;32.20;;;;;;5056620;27;20496;-84
2023/07/02 12:26:12;;;;;;;10.33;6.83;;;27.80;31.60;;;;;;5105354;27;20442;-85
2023/07/02 12:28:39;;;;;;;13.70;7.33;;;28.10;31.50;;;;;;5055752;27;20453;-85
2023/07/02 12:31:06;;;;;;;12.70;8.13;;;28.10;30.90;;;;;;5068324;27;20947;-85
2023/07/02 12:33:33;;;;;;;12.40;7.97;;;28.00;31.10;;;;;;5068976;27;20885;-85
2023/07/02 12:36:03;;;;;;;12.97;8.23;;;27.70;31.30;;;;;;5071117;27;20460;-85
2023/07/02 12:38:29;;;;;;;16.63;8.70;;;27.40;31.60;;;;;;5084326;27;20457;-85
2023/07/02 12:40:56;;;;;;;15.40;8.37;;;27.10;31.60;;;;;;5073615;27;20437;-85
2023/07/02 12:43:23;;;;;;;10.90;7.13;;;27.20;33.00;;;;;;5084922;27;20471;-85
2023/07/02 12:45:51;;;;;;;13.37;8.37;;;27.40;34.00;;;;;;5088692;27;20486;-84
2023/07/02 12:48:18;;;;;;;10.73;7.97;;;27.60;31.10;;;;;;5070592;27;20519;-86